Time;durP1;ratioP1;P1;durP2;ratioP2;P2;SDS_P1;SDS_P2;PMS_P1;PMS_P2;Temp;Humidity;BMP_temperature;BMP_pressure;BME280_temperature;BME280_humidity;BME280_pressure;Samples;Min_cycle;Max_cycle;Signal;HPM_P1;HPM_P2
2023/04/10 00:00:44;;;;;;;62.00;53.90;;;9.60;95.90;;;;;;5004627;28;20632;-73
2023/04/10 00:03:10;;;;;;;62.15;53.53;;;9.60;96.10;;;;;;5016626;28;20045;-74
2023/04/10 00:05:36;;;;;;;61.03;54.25;;;9.60;96.20;;;;;;5024168;28;20551;-73
2023/04/10 00:08:02;;;;;;;61.15;54.40;;;9.50;96.80;;;;;;5026006;28;20042;-74
2023/04/10 00:10:30;;;;;;;63.22;54.78;;;9.50;96.80;;;;;;5019485;28;20063;-74
2023/04/10 00:12:56;;;;;;;64.65;54.97;;;9.50;96.50;;;;;;5021470;28;20045;-73
2023/04/10 00:15:22;;;;;;;62.38;55.65;;;9.40;96.50;;;;;;5008742;28;20045;-74
2023/04/10 00:17:53;;;;;;;63.67;56.42;;;9.40;96.40;;;;;;5026156;28;20099;-73
2023/04/10 00:20:20;;;;;;;64.60;55.38;;;9.40;96.50;;;;;;5023112;28;20073;-74
2023/04/10 00:22:46;;;;;;;66.15;57.17;;;9.40;96.80;;;;;;5026503;28;20768;-74
2023/04/10 00:25:11;;;;;;;63.65;55.85;;;9.40;96.50;;;;;;5024242;28;20041;-74
2023/04/10 00:27:37;;;;;;;65.88;56.63;;;9.40;96.40;;;;;;5021945;28;20052;-72
2023/04/10 00:30:03;;;;;;;64.18;57.13;;;9.40;96.40;;;;;;4998368;28;20080;-72
2023/04/10 00:32:29;;;;;;;67.13;57.80;;;9.40;96.20;;;;;;5007825;28;20094;-72
2023/04/10 00:34:54;;;;;;;63.78;56.63;;;9.30;95.90;;;;;;5024666;28;20420;-72
2023/04/10 00:37:20;;;;;;;67.85;57.72;;;9.40;96.10;;;;;;5024804;28;20042;-72
2023/04/10 00:39:46;;;;;;;65.05;57.25;;;9.30;95.80;;;;;;5023958;28;20053;-72
2023/04/10 00:42:11;;;;;;;65.22;56.33;;;9.30;95.70;;;;;;5009141;28;20098;-72
2023/04/10 00:44:37;;;;;;;67.03;56.78;;;9.30;95.70;;;;;;5022626;28;20129;-72
2023/04/10 00:47:04;;;;;;;64.93;57.60;;;9.30;95.50;;;;;;5002964;28;20606;-72
2023/04/10 00:49:30;;;;;;;66.30;57.53;;;9.30;95.30;;;;;;5021639;28;20049;-72
2023/04/10 00:51:56;;;;;;;65.47;58.17;;;9.40;95.10;;;;;;5024012;28;20030;-72
2023/04/10 00:54:22;;;;;;;66.60;57.60;;;9.30;94.90;;;;;;5030098;28;20176;-72
2023/04/10 00:56:49;;;;;;;64.30;57.25;;;9.40;94.80;;;;;;5006938;28;20046;-72
2023/04/10 00:59:15;;;;;;;65.57;57.80;;;9.30;94.60;;;;;;5023278;28;20116;-72
2023/04/10 01:01:41;;;;;;;66.30;58.00;;;9.30;94.80;;;;;;5027045;28;20046;-72
2023/04/10 01:04:08;;;;;;;65.03;56.53;;;9.30;94.70;;;;;;5009582;28;20049;-72
2023/04/10 01:06:57;;;;;;;68.78;58.58;;;9.20;94.70;;;;;;5006086;28;20064;-72
2023/04/10 01:09:47;;;;;;;63.90;56.58;;;9.30;94.90;;;;;;5024361;28;20107;-72
2023/04/10 01:12:38;;;;;;;64.53;56.25;;;9.20;94.80;;;;;;5010713;28;20127;-72
2023/04/10 01:15:03;;;;;;;65.65;57.60;;;9.20;94.90;;;;;;5027417;28;20489;-72
2023/04/10 01:17:54;;;;;;;64.32;56.20;;;9.20;95.00;;;;;;5008528;28;20128;-72
2023/04/10 01:20:22;;;;;;;66.45;58.15;;;9.20;94.90;;;;;;5022655;28;20065;-72
2023/04/10 01:23:15;;;;;;;65.30;57.40;;;9.10;94.80;;;;;;5002905;28;20056;-73
2023/04/10 01:25:47;;;;;;;64.45;56.60;;;9.10;94.80;;;;;;5027229;28;20041;-72
2023/04/10 01:28:19;;;;;;;66.53;58.53;;;9.00;94.80;;;;;;5028398;28;20029;-72
2023/04/10 01:30:56;;;;;;;71.85;57.80;;;9.10;95.00;;;;;;5006289;28;20049;-72
2023/04/10 01:33:29;;;;;;;67.07;56.30;;;9.00;94.80;;;;;;5021959;28;20160;-72
2023/04/10 01:35:59;;;;;;;66.75;56.92;;;9.00;94.90;;;;;;5000448;28;20045;-72
2023/04/10 01:38:27;;;;;;;63.40;55.95;;;9.00;95.10;;;;;;5026964;28;20084;-72
2023/04/10 01:40:54;;;;;;;64.97;55.90;;;9.00;94.90;;;;;;5026604;28;20041;-72
2023/04/10 01:43:22;;;;;;;67.50;57.58;;;9.00;95.10;;;;;;5026983;28;20145;-72
2023/04/10 01:45:50;;;;;;;65.43;56.22;;;9.00;95.20;;;;;;5006648;28;20048;-72
2023/04/10 01:48:17;;;;;;;64.93;56.00;;;9.00;95.00;;;;;;5027160;28;20096;-72
2023/04/10 01:50:45;;;;;;;66.82;55.75;;;9.00;95.00;;;;;;5026586;28;20076;-72
2023/04/10 01:53:11;;;;;;;;;;;8.90;95.10;;;;;;5024134;28;20076;-72
2023/04/10 01:55:37;;;;;;;66.43;57.42;;;8.90;95.40;;;;;;5006624;28;20041;-72
2023/04/10 01:58:06;;;;;;;64.07;56.85;;;8.80;95.50;;;;;;5028912;28;20077;-72
2023/04/10 02:00:40;;;;;;;65.45;56.72;;;8.80;95.70;;;;;;5024164;28;20045;-72
2023/04/10 02:03:06;;;;;;;63.00;55.13;;;8.90;95.60;;;;;;5024434;28;20046;-72
2023/04/10 02:05:45;;;;;;;64.40;56.28;;;8.80;95.70;;;;;;5022277;28;20037;-72
2023/04/10 02:08:33;;;;;;;63.42;54.95;;;8.80;96.00;;;;;;5026048;28;20048;-72
2023/04/10 02:11:05;;;;;;;61.53;54.38;;;8.80;95.90;;;;;;5024443;28;20111;-72
2023/04/10 02:13:34;;;;;;;62.20;52.92;;;8.80;96.30;;;;;;5018827;28;20084;-72
2023/04/10 02:16:05;;;;;;;59.75;53.20;;;8.80;96.40;;;;;;5023857;28;20053;-72
2023/04/10 02:18:33;;;;;;;60.47;52.88;;;8.70;96.60;;;;;;5026024;28;20079;-72
2023/04/10 02:20:59;;;;;;;64.20;54.22;;;8.70;96.70;;;;;;5008675;28;20591;-72
2023/04/10 02:23:25;;;;;;;60.85;53.22;;;8.70;96.80;;;;;;5027837;28;20041;-72
2023/04/10 02:25:51;;;;;;;60.05;52.55;;;8.70;97.00;;;;;;5025134;28;20555;-72
2023/04/10 02:28:19;;;;;;;58.97;51.88;;;8.70;96.90;;;;;;5028241;28;20037;-72
2023/04/10 02:30:45;;;;;;;60.30;52.58;;;8.60;97.00;;;;;;5020111;28;20096;-72
2023/04/10 02:33:10;;;;;;;59.83;52.67;;;8.60;97.30;;;;;;5025308;28;20044;-71
2023/04/10 02:35:39;;;;;;;61.40;53.53;;;8.60;97.50;;;;;;5022216;28;20048;-72
2023/04/10 02:38:06;;;;;;;59.70;52.70;;;8.60;97.70;;;;;;5008123;28;20041;-72
2023/04/10 02:40:31;;;;;;;62.03;54.03;;;8.60;97.80;;;;;;5007146;28;20050;-72
2023/04/10 02:42:57;;;;;;;66.50;54.25;;;8.60;97.70;;;;;;5026695;28;20366;-72
2023/04/10 02:45:23;;;;;;;66.78;56.70;;;8.50;97.30;;;;;;5005297;28;20520;-72
2023/04/10 02:47:48;;;;;;;62.95;55.30;;;8.60;96.90;;;;;;5006054;28;20121;-72
2023/04/10 02:50:16;;;;;;;65.43;57.28;;;8.50;96.50;;;;;;5006757;28;20046;-72
2023/04/10 02:52:41;;;;;;;69.93;56.63;;;8.60;96.30;;;;;;5024765;28;20037;-72
2023/04/10 02:55:07;;;;;;;64.72;55.75;;;8.60;96.10;;;;;;5025243;28;20086;-72
2023/04/10 02:57:34;;;;;;;66.68;57.60;;;8.60;96.10;;;;;;5007070;28;20041;-72
2023/04/10 03:00:00;;;;;;;68.03;56.90;;;8.50;96.10;;;;;;5023914;28;20072;-72
2023/04/10 03:02:25;;;;;;;68.30;56.90;;;8.50;96.20;;;;;;5019370;28;20037;-72
2023/04/10 03:04:52;;;;;;;71.95;59.75;;;8.50;96.30;;;;;;5025349;28;20037;-72
2023/04/10 03:07:17;;;;;;;71.88;60.53;;;8.50;96.40;;;;;;5021210;28;20116;-72
2023/04/10 03:09:43;;;;;;;72.50;59.88;;;8.50;96.50;;;;;;5016124;28;20164;-72
2023/04/10 03:12:09;;;;;;;73.18;61.08;;;8.50;96.30;;;;;;5006399;28;20076;-72
2023/04/10 03:14:34;;;;;;;72.85;61.08;;;8.50;96.50;;;;;;5025412;28;20111;-72
2023/04/10 03:17:00;;;;;;;75.57;60.97;;;8.40;96.60;;;;;;5027722;28;20747;-72
2023/04/10 03:19:26;;;;;;;73.22;60.25;;;8.40;97.20;;;;;;5025508;28;20059;-72
2023/04/10 03:21:52;;;;;;;76.70;63.60;;;8.30;97.20;;;;;;5007380;28;20147;-72
2023/04/10 03:24:18;;;;;;;76.85;64.13;;;8.40;97.50;;;;;;5024545;28;20041;-72
2023/04/10 03:26:43;;;;;;;76.50;65.53;;;8.40;97.20;;;;;;5023892;28;20650;-72
2023/04/10 03:29:09;;;;;;;75.68;63.63;;;8.40;97.30;;;;;;5007225;28;20497;-71
2023/04/10 03:31:35;;;;;;;82.20;65.88;;;8.30;97.40;;;;;;5025476;28;20033;-72
2023/04/10 03:34:00;;;;;;;79.38;66.35;;;8.30;97.60;;;;;;5026158;28;20044;-72
2023/04/10 03:36:26;;;;;;;78.10;66.63;;;8.40;97.80;;;;;;5008459;28;20397;-72
2023/04/10 03:38:52;;;;;;;77.78;65.88;;;8.20;97.90;;;;;;5027325;28;20483;-72
2023/04/10 03:41:17;;;;;;;82.32;68.65;;;8.30;98.10;;;;;;5023296;28;20038;-72
2023/04/10 03:43:44;;;;;;;78.30;66.80;;;8.30;98.50;;;;;;5019845;28;20049;-72
2023/04/10 03:46:09;;;;;;;80.82;68.30;;;8.30;98.50;;;;;;5023291;28;20128;-72
2023/04/10 03:48:35;;;;;;;81.95;70.03;;;8.20;98.50;;;;;;4995300;28;20132;-72
2023/04/10 03:51:01;;;;;;;81.63;69.10;;;8.30;99.10;;;;;;5021595;28;20055;-72
2023/04/10 03:53:27;;;;;;;84.13;70.63;;;8.30;99.50;;;;;;5026265;28;20037;-72
2023/04/10 03:55:52;;;;;;;81.95;71.95;;;8.30;99.80;;;;;;5023259;28;20112;-72
2023/04/10 03:58:21;;;;;;;80.32;69.53;;;8.30;99.90;;;;;;5003313;28;20129;-71
2023/04/10 04:00:46;;;;;;;88.93;73.90;;;8.30;99.90;;;;;;5021278;28;20124;-72
2023/04/10 04:03:12;;;;;;;87.20;73.22;;;8.30;99.80;;;;;;5020044;28;20038;-72
2023/04/10 04:05:38;;;;;;;82.20;72.60;;;8.20;99.80;;;;;;5017751;28;20049;-72
2023/04/10 04:08:05;;;;;;;86.55;74.40;;;8.30;99.80;;;;;;5017770;28;20076;-72
2023/04/10 04:10:31;;;;;;;85.05;72.75;;;8.20;99.80;;;;;;5022822;28;20085;-71
2023/04/10 04:12:57;;;;;;;82.03;70.45;;;8.20;99.90;;;;;;5022504;28;20045;-72
2023/04/10 04:15:23;;;;;;;87.95;72.90;;;8.20;99.90;;;;;;5021110;28;20112;-72
2023/04/10 04:17:49;;;;;;;86.68;71.25;;;8.10;99.90;;;;;;5024446;28;20600;-74
2023/04/10 04:20:14;;;;;;;85.13;74.55;;;8.10;99.90;;;;;;5017312;28;20084;-72
2023/04/10 04:22:40;;;;;;;88.70;72.00;;;8.10;99.90;;;;;;5005275;28;20601;-72
2023/04/10 04:25:09;;;;;;;89.55;71.40;;;8.10;99.90;;;;;;5027703;28;20080;-72
2023/04/10 04:27:35;;;;;;;85.97;73.28;;;8.10;99.90;;;;;;5008416;28;20034;-72
2023/04/10 04:30:01;;;;;;;88.57;74.03;;;8.10;99.90;;;;;;5004516;28;20030;-72
2023/04/10 04:32:27;;;;;;;84.40;70.22;;;8.10;99.90;;;;;;5027518;28;20113;-72
2023/04/10 04:34:52;;;;;;;87.20;73.53;;;8.00;99.90;;;;;;5011700;28;20132;-72
2023/04/10 04:37:18;;;;;;;84.85;73.47;;;8.00;99.90;;;;;;5025804;28;20480;-72
2023/04/10 04:39:44;;;;;;;87.03;71.75;;;8.00;99.90;;;;;;5029450;28;20118;-72
2023/04/10 04:42:12;;;;;;;84.18;72.00;;;8.00;99.90;;;;;;5028015;28;20555;-74
2023/04/10 04:44:38;;;;;;;85.63;72.95;;;8.00;99.90;;;;;;5008276;28;20387;-72
2023/04/10 04:47:03;;;;;;;84.15;73.40;;;8.00;99.90;;;;;;5027804;28;20133;-71
2023/04/10 04:49:29;;;;;;;82.85;69.07;;;8.00;99.90;;;;;;5007818;28;20080;-72
2023/04/10 04:51:54;;;;;;;82.35;71.28;;;8.00;99.90;;;;;;5027872;28;20117;-72
2023/04/10 04:54:20;;;;;;;83.40;71.75;;;7.90;99.90;;;;;;5004299;28;20037;-72
2023/04/10 04:56:46;;;;;;;85.88;72.85;;;7.90;99.90;;;;;;5007891;28;20080;-72
2023/04/10 04:59:11;;;;;;;90.40;70.85;;;7.90;99.90;;;;;;5006573;28;20100;-72
2023/04/10 05:01:37;;;;;;;84.72;70.82;;;7.90;99.90;;;;;;5026942;28;20124;-72
2023/04/10 05:04:02;;;;;;;83.40;72.50;;;7.80;99.90;;;;;;5025827;28;20605;-72
2023/04/10 05:06:28;;;;;;;85.53;69.70;;;7.80;99.90;;;;;;5028536;28;20068;-73
2023/04/10 05:08:54;;;;;;;83.70;71.97;;;7.80;99.90;;;;;;5007325;28;20041;-72
2023/04/10 05:11:19;;;;;;;83.15;71.03;;;7.80;99.90;;;;;;5024040;28;20034;-73
2023/04/10 05:13:45;;;;;;;81.28;71.95;;;7.80;99.90;;;;;;5028088;28;20175;-72
2023/04/10 05:16:11;;;;;;;81.35;71.53;;;7.80;99.90;;;;;;5028427;28;20103;-73
2023/04/10 05:18:36;;;;;;;81.85;69.57;;;7.80;99.90;;;;;;5026152;28;20052;-73
2023/04/10 05:21:02;;;;;;;85.28;72.40;;;7.80;99.90;;;;;;5024890;28;20096;-72
2023/04/10 05:23:27;;;;;;;84.15;70.13;;;7.80;99.90;;;;;;5009090;28;20499;-73
2023/04/10 05:25:53;;;;;;;85.47;72.53;;;7.80;99.90;;;;;;5024159;28;20468;-73
2023/04/10 05:28:19;;;;;;;80.03;69.50;;;7.80;99.90;;;;;;5021377;28;20041;-73
2023/04/10 05:30:44;;;;;;;81.97;69.80;;;7.80;99.90;;;;;;5020096;28;20499;-73
2023/04/10 05:33:10;;;;;;;80.20;67.35;;;7.80;99.90;;;;;;5020596;28;20060;-72
2023/04/10 05:35:35;;;;;;;79.90;68.60;;;7.80;99.90;;;;;;5023645;28;20045;-73
2023/04/10 05:38:01;;;;;;;82.32;68.57;;;7.80;99.90;;;;;;5026491;28;20041;-72
2023/04/10 05:40:28;;;;;;;80.50;66.57;;;7.90;99.90;;;;;;5006958;28;20056;-72
2023/04/10 05:42:53;;;;;;;81.97;69.72;;;7.90;99.90;;;;;;5003706;28;20041;-72
2023/04/10 05:45:19;;;;;;;77.78;67.15;;;7.90;99.90;;;;;;5027571;28;20047;-72
2023/04/10 05:47:44;;;;;;;78.80;65.43;;;7.90;99.90;;;;;;5026650;28;20661;-71
2023/04/10 05:50:10;;;;;;;76.57;64.45;;;8.00;99.90;;;;;;5019581;28;20381;-72
2023/04/10 05:52:36;;;;;;;78.95;65.53;;;8.00;99.90;;;;;;5023395;28;20041;-72
2023/04/10 05:55:02;;;;;;;81.93;67.00;;;8.00;99.90;;;;;;5020241;28;20049;-72
2023/04/10 05:57:29;;;;;;;76.35;64.43;;;8.10;99.90;;;;;;4994719;28;20058;-72
2023/04/10 05:59:54;;;;;;;76.88;65.07;;;8.10;99.90;;;;;;5006302;28;20056;-71
2023/04/10 06:02:20;;;;;;;74.78;63.65;;;8.10;99.90;;;;;;5015882;28;20033;-72
2023/04/10 06:04:46;;;;;;;74.97;65.20;;;8.20;99.90;;;;;;5023182;28;20531;-72
2023/04/10 06:07:12;;;;;;;77.82;63.20;;;8.30;99.90;;;;;;5021388;28;20505;-72
2023/04/10 06:09:37;;;;;;;74.05;64.80;;;8.30;99.90;;;;;;5023273;28;20464;-72
2023/04/10 06:12:03;;;;;;;74.60;63.67;;;8.40;99.90;;;;;;5018769;28;20144;-72
2023/04/10 06:14:29;;;;;;;71.07;61.70;;;8.40;99.90;;;;;;5023802;28;20128;-71
2023/04/10 06:16:55;;;;;;;72.90;62.78;;;8.50;99.90;;;;;;5018994;28;20495;-71
2023/04/10 06:19:20;;;;;;;74.25;60.67;;;8.50;99.90;;;;;;5023364;28;20100;-71
2023/04/10 06:21:46;;;;;;;69.32;60.00;;;8.60;99.90;;;;;;5006493;28;20633;-71
2023/04/10 06:24:13;;;;;;;70.95;58.83;;;8.60;99.90;;;;;;5003564;28;20056;-71
2023/04/10 06:26:38;;;;;;;67.80;58.97;;;8.70;99.90;;;;;;5022308;28;20037;-71
2023/04/10 06:29:04;;;;;;;71.93;57.85;;;8.80;99.90;;;;;;4993072;28;20500;-72
2023/04/10 06:31:32;;;;;;;67.60;56.97;;;8.80;99.90;;;;;;5026150;28;20079;-72
2023/04/10 06:33:58;;;;;;;68.57;56.97;;;8.90;99.90;;;;;;5015311;28;20493;-71
2023/04/10 06:36:24;;;;;;;64.78;55.72;;;9.00;99.90;;;;;;5024621;28;20042;-71
2023/04/10 06:38:50;;;;;;;65.55;54.75;;;9.20;99.90;;;;;;5005705;28;20045;-71
2023/04/10 06:41:16;;;;;;;64.13;54.92;;;9.20;99.50;;;;;;5008812;28;20056;-72
2023/04/10 06:43:41;;;;;;;63.90;53.30;;;9.20;98.70;;;;;;5013908;28;20042;-71
2023/04/10 06:46:07;;;;;;;61.33;52.08;;;9.40;98.30;;;;;;5023518;28;20041;-70
2023/04/10 06:48:33;;;;;;;59.55;52.47;;;9.40;97.90;;;;;;5008913;28;20128;-71
2023/04/10 06:51:01;;;;;;;60.60;52.03;;;9.50;97.60;;;;;;5020706;28;20037;-72
2023/04/10 06:53:27;;;;;;;59.92;49.42;;;9.60;97.20;;;;;;5023538;28;20042;-74
2023/04/10 06:55:53;;;;;;;59.03;50.03;;;9.60;96.90;;;;;;5025168;28;20064;-72
2023/04/10 06:58:19;;;;;;;62.20;50.55;;;9.80;96.30;;;;;;5002526;28;20121;-71
2023/04/10 07:00:45;;;;;;;59.83;50.00;;;9.80;96.00;;;;;;5022810;28;20168;-72
2023/04/10 07:03:11;;;;;;;57.33;48.42;;;9.90;95.40;;;;;;5020165;28;20109;-70
2023/04/10 07:05:37;;;;;;;54.60;47.05;;;10.00;94.80;;;;;;5017809;28;20523;-71
2023/04/10 07:08:02;;;;;;;55.47;47.20;;;10.00;93.90;;;;;;5021843;28;20034;-71
2023/04/10 07:10:28;;;;;;;55.03;46.22;;;10.00;93.30;;;;;;5017244;28;20045;-70
2023/04/10 07:12:56;;;;;;;54.47;45.45;;;10.00;93.00;;;;;;5019130;28;20065;-72
2023/04/10 07:15:21;;;;;;;52.83;44.97;;;10.10;92.50;;;;;;5023565;28;20045;-72
2023/04/10 07:17:47;;;;;;;52.85;45.40;;;10.10;92.30;;;;;;5027060;28;20053;-71
2023/04/10 07:20:13;;;;;;;50.05;43.60;;;10.20;92.40;;;;;;5018082;28;20700;-71
2023/04/10 07:22:38;;;;;;;51.15;42.30;;;10.20;92.20;;;;;;5027686;28;20482;-72
2023/04/10 07:25:06;;;;;;;49.20;42.10;;;10.20;92.10;;;;;;5007873;28;20053;-71
2023/04/10 07:27:31;;;;;;;45.58;39.03;;;10.20;91.90;;;;;;5025301;28;20045;-70
2023/04/10 07:29:57;;;;;;;49.30;40.47;;;10.30;91.50;;;;;;5022522;28;20107;-69
2023/04/10 07:32:23;;;;;;;46.70;39.08;;;10.30;91.20;;;;;;5025469;28;20044;-69
2023/04/10 07:34:48;;;;;;;44.78;37.88;;;10.30;91.00;;;;;;5005554;28;20054;-72
2023/04/10 07:37:14;;;;;;;44.05;37.50;;;10.40;91.00;;;;;;5002717;28;20125;-70
2023/04/10 07:39:40;;;;;;;42.13;37.38;;;10.40;91.10;;;;;;5022357;28;20454;-71
2023/04/10 07:42:06;;;;;;;45.05;36.30;;;10.50;90.60;;;;;;5027392;28;20087;-71
2023/04/10 07:44:31;;;;;;;42.08;36.05;;;10.60;90.60;;;;;;5019818;28;20052;-70
2023/04/10 07:46:57;;;;;;;43.40;37.50;;;10.70;90.60;;;;;;5019868;28;20045;-71
2023/04/10 07:49:23;;;;;;;43.15;36.38;;;10.70;90.10;;;;;;5006350;28;20056;-72
2023/04/10 07:51:49;;;;;;;41.90;37.13;;;10.90;89.80;;;;;;5022963;28;20037;-72
2023/04/10 07:54:15;;;;;;;43.33;35.83;;;10.90;89.00;;;;;;5025271;28;20037;-71
2023/04/10 07:56:40;;;;;;;40.47;36.08;;;11.00;88.40;;;;;;5023722;28;20484;-70
2023/04/10 07:59:06;;;;;;;40.72;35.53;;;11.00;87.30;;;;;;5027202;28;20128;-70
2023/04/10 08:01:32;;;;;;;39.92;34.72;;;11.10;86.20;;;;;;5023299;28;20042;-70
2023/04/10 08:03:57;;;;;;;40.75;35.25;;;11.10;85.60;;;;;;5029040;28;20041;-70
2023/04/10 08:06:25;;;;;;;40.65;34.30;;;11.20;85.50;;;;;;5025430;28;20029;-71
2023/04/10 08:08:51;;;;;;;37.17;33.13;;;11.30;84.80;;;;;;5024643;28;20124;-71
2023/04/10 08:11:29;;;;;;;35.90;32.00;;;11.40;83.70;;;;;;5011792;28;20192;-70
2023/04/10 08:13:57;;;;;;;36.50;31.92;;;11.50;82.90;;;;;;5024722;28;20073;-69
2023/04/10 08:16:31;;;;;;;36.92;32.60;;;11.50;82.70;;;;;;5030557;28;20052;-70
2023/04/10 08:18:57;;;;;;;35.67;30.83;;;11.60;82.30;;;;;;5026270;28;20049;-70
2023/04/10 08:21:25;;;;;;;35.75;30.67;;;11.80;82.30;;;;;;5023366;28;20048;-68
2023/04/10 08:23:53;;;;;;;36.40;30.58;;;11.90;80.80;;;;;;5028138;28;20124;-70
2023/04/10 08:26:20;;;;;;;34.58;29.38;;;12.00;80.20;;;;;;5010058;28;20717;-69
2023/04/10 08:28:50;;;;;;;33.95;29.20;;;12.10;79.60;;;;;;5025628;28;20114;-69
2023/04/10 08:31:21;;;;;;;38.97;31.63;;;12.20;79.40;;;;;;5030100;28;20053;-69
2023/04/10 08:33:48;;;;;;;35.15;30.63;;;12.20;79.00;;;;;;5028036;28;20075;-71
2023/04/10 08:36:14;;;;;;;34.47;30.00;;;12.30;78.80;;;;;;5026699;28;20053;-69
2023/04/10 08:38:41;;;;;;;35.78;30.30;;;12.40;79.30;;;;;;5028872;28;20096;-70
2023/04/10 08:41:10;;;;;;;32.13;28.48;;;12.50;78.00;;;;;;5029067;28;20544;-69
2023/04/10 08:43:38;;;;;;;31.45;28.00;;;12.50;77.40;;;;;;5029881;28;20037;-70
2023/04/10 08:46:05;;;;;;;32.55;27.90;;;12.60;77.00;;;;;;5009678;28;20045;-70
2023/04/10 08:48:41;;;;;;;31.97;28.37;;;12.70;76.60;;;;;;5006298;28;20057;-71
2023/04/10 08:51:12;;;;;;;30.73;26.70;;;12.90;76.20;;;;;;5027032;28;20048;-71
2023/04/10 08:53:42;;;;;;;31.70;27.23;;;12.90;75.60;;;;;;5005021;28;20769;-71
2023/04/10 08:56:13;;;;;;;28.83;25.13;;;13.00;75.50;;;;;;5001827;28;20537;-71
2023/04/10 08:58:39;;;;;;;29.17;25.50;;;13.00;75.20;;;;;;5030031;28;20041;-71
2023/04/10 09:01:06;;;;;;;29.90;25.50;;;13.10;75.30;;;;;;5030866;28;20049;-71
2023/04/10 09:03:32;;;;;;;29.05;24.77;;;13.10;75.00;;;;;;5030230;28;20120;-71
2023/04/10 09:06:02;;;;;;;26.45;22.90;;;13.10;74.70;;;;;;5008510;28;20188;-71
2023/04/10 09:08:28;;;;;;;27.75;22.98;;;13.20;73.70;;;;;;5021898;28;20045;-71
2023/04/10 09:10:54;;;;;;;26.50;23.60;;;13.20;73.50;;;;;;5030162;28;20045;-71
2023/04/10 09:13:52;;;;;;;26.13;22.63;;;13.20;73.50;;;;;;5025855;28;20044;-71
2023/04/10 09:16:29;;;;;;;27.00;23.05;;;13.20;73.80;;;;;;4976860;28;20050;-71
2023/04/10 09:18:54;;;;;;;26.27;22.13;;;13.30;73.20;;;;;;5017205;28;20053;-71
2023/04/10 09:21:20;;;;;;;24.92;21.77;;;13.40;72.80;;;;;;5026606;28;20041;-71
2023/04/10 09:23:47;;;;;;;24.85;22.05;;;13.40;72.40;;;;;;5022438;28;20037;-76
2023/04/10 09:26:23;;;;;;;23.50;20.98;;;13.50;72.30;;;;;;5022763;28;20060;-71
2023/04/10 09:29:05;;;;;;;23.27;20.77;;;13.50;72.20;;;;;;5017760;28;20114;-74
2023/04/10 09:31:37;;;;;;;25.52;21.08;;;13.60;72.10;;;;;;5005178;28;20056;-72
2023/04/10 09:34:21;;;;;;;28.65;24.25;;;13.60;71.80;;;;;;5028425;28;20075;-72
2023/04/10 09:36:57;;;;;;;25.55;22.83;;;13.70;71.50;;;;;;5028016;28;20070;-72
2023/04/10 09:39:42;;;;;;;27.27;23.23;;;13.80;71.80;;;;;;5027085;28;20080;-70
2023/04/10 09:42:10;;;;;;;22.55;20.15;;;13.90;71.80;;;;;;5007493;28;20061;-70
2023/04/10 09:44:38;;;;;;;25.05;20.92;;;14.00;71.50;;;;;;5029960;28;20044;-70
2023/04/10 09:47:12;;;;;;;22.73;20.13;;;14.10;70.90;;;;;;5023132;28;20172;-68
2023/04/10 09:49:48;;;;;;;21.23;18.60;;;14.20;70.20;;;;;;5023045;28;20048;-69
2023/04/10 09:52:37;;;;;;;19.13;17.13;;;14.20;70.20;;;;;;5027429;28;20085;-70
2023/04/10 09:55:08;;;;;;;16.85;15.05;;;14.30;70.30;;;;;;5028028;28;20037;-68
2023/04/10 09:57:34;;;;;;;16.10;14.05;;;14.40;69.40;;;;;;5000209;28;20042;-70
2023/04/10 10:00:03;;;;;;;16.65;13.88;;;14.50;68.30;;;;;;4997474;28;20092;-69
2023/04/10 10:02:30;;;;;;;15.07;13.32;;;14.60;67.20;;;;;;5003262;28;20489;-70
2023/04/10 10:05:00;;;;;;;15.98;14.07;;;14.60;67.00;;;;;;5000529;28;20121;-69
2023/04/10 10:07:26;;;;;;;16.95;12.30;;;14.60;66.20;;;;;;5017607;28;20042;-70
2023/04/10 10:09:52;;;;;;;16.25;12.55;;;14.60;66.30;;;;;;5029702;28;20080;-69
2023/04/10 10:12:28;;;;;;;17.27;13.05;;;14.60;66.50;;;;;;5028365;28;20072;-69
2023/04/10 10:15:00;;;;;;;14.02;12.63;;;14.70;66.30;;;;;;5010184;28;20481;-71
2023/04/10 10:17:33;;;;;;;15.15;12.85;;;14.70;66.50;;;;;;5024150;28;20052;-69
2023/04/10 10:20:04;;;;;;;15.23;12.27;;;14.70;66.50;;;;;;5024280;28;20172;-70
2023/04/10 10:22:31;;;;;;;15.25;12.25;;;14.80;66.70;;;;;;5005483;28;20045;-70
2023/04/10 10:24:59;;;;;;;12.88;11.35;;;14.90;67.00;;;;;;5027145;28;20038;-70
2023/04/10 10:27:30;;;;;;;14.30;12.32;;;15.00;65.70;;;;;;5026875;28;20120;-70
2023/04/10 10:29:59;;;;;;;15.68;11.98;;;15.10;64.90;;;;;;5005431;28;20050;-70
2023/04/10 10:32:26;;;;;;;14.32;12.20;;;15.10;64.80;;;;;;5016774;28;20738;-69
2023/04/10 10:34:52;;;;;;;17.65;12.02;;;15.20;64.80;;;;;;5025433;28;20049;-70
2023/04/10 10:37:22;;;;;;;14.60;12.20;;;15.20;64.20;;;;;;5020789;28;20485;-70
2023/04/10 10:40:23;;;;;;;14.13;11.18;;;15.20;64.00;;;;;;5025993;28;20475;-70
2023/04/10 10:43:07;;;;;;;14.27;11.02;;;15.30;64.00;;;;;;5002686;28;20111;-72
2023/04/10 10:45:42;;;;;;;12.05;10.80;;;15.40;63.90;;;;;;5024126;28;20439;-72
2023/04/10 10:48:08;;;;;;;11.88;10.10;;;15.40;63.90;;;;;;5020805;28;20049;-73
2023/04/10 10:50:58;;;;;;;11.35;9.88;;;15.50;64.50;;;;;;5023524;28;20041;-72
2023/04/10 10:53:49;;;;;;;11.60;9.82;;;15.60;64.70;;;;;;5026698;28;20037;-72
2023/04/10 10:56:21;;;;;;;11.60;9.60;;;15.70;64.90;;;;;;5011776;28;20709;-72
2023/04/10 10:58:57;;;;;;;10.13;8.75;;;15.80;64.40;;;;;;5002150;28;20072;-73
2023/04/10 11:01:23;;;;;;;12.75;9.18;;;15.90;63.10;;;;;;5025613;28;20098;-74
2023/04/10 11:03:49;;;;;;;9.60;8.60;;;15.90;63.10;;;;;;5004702;28;20476;-74
2023/04/10 11:06:19;;;;;;;9.38;8.38;;;15.90;63.10;;;;;;5026543;28;20481;-74
2023/04/10 11:08:48;;;;;;;9.70;8.70;;;15.90;62.30;;;;;;5025670;28;20049;-72
2023/04/10 11:11:17;;;;;;;10.23;8.50;;;16.00;62.70;;;;;;5011629;28;20045;-72
2023/04/10 11:13:49;;;;;;;10.45;8.55;;;16.10;62.50;;;;;;5018368;28;20044;-72
2023/04/10 11:16:14;;;;;;;10.70;8.43;;;16.10;62.20;;;;;;5025460;28;20033;-72
2023/04/10 11:18:49;;;;;;;9.52;7.53;;;16.10;62.10;;;;;;5024107;28;20116;-72
2023/04/10 11:21:20;;;;;;;11.15;7.25;;;16.20;61.90;;;;;;5012876;28;20052;-73
2023/04/10 11:23:49;;;;;;;9.82;7.32;;;16.20;61.70;;;;;;5022331;28;20175;-72
2023/04/10 11:26:37;;;;;;;10.40;6.55;;;16.20;61.50;;;;;;5005188;28;20148;-74
2023/04/10 11:29:11;;;;;;;8.43;6.90;;;16.20;60.40;;;;;;5000763;28;20049;-78
2023/04/10 11:31:38;;;;;;;7.18;6.40;;;16.20;60.30;;;;;;5021469;28;20129;-73
2023/04/10 11:34:09;;;;;;;9.10;6.18;;;16.30;61.10;;;;;;5024316;28;20038;-73
2023/04/10 11:36:38;;;;;;;7.38;6.40;;;16.30;60.70;;;;;;5025662;28;20128;-74
2023/04/10 11:39:09;;;;;;;7.70;5.85;;;16.40;60.20;;;;;;5024891;28;20129;-73
2023/04/10 11:41:51;;;;;;;7.43;6.00;;;16.40;60.20;;;;;;5023238;28;20049;-73
2023/04/10 11:44:25;;;;;;;7.78;5.78;;;16.40;60.10;;;;;;5004178;28;20054;-73
2023/04/10 11:46:51;;;;;;;6.63;5.80;;;16.40;60.20;;;;;;5024576;28;20488;-73
2023/04/10 11:49:22;;;;;;;6.63;5.25;;;16.50;60.60;;;;;;5021346;28;20571;-72
2023/04/10 11:51:49;;;;;;;6.40;5.53;;;16.50;59.90;;;;;;5005259;28;20042;-73
2023/04/10 11:54:18;;;;;;;6.82;4.82;;;16.50;59.50;;;;;;5024050;28;20550;-72
2023/04/10 11:56:57;;;;;;;6.20;5.07;;;16.50;58.50;;;;;;5002891;28;20053;-75
2023/04/10 11:59:23;;;;;;;9.90;6.40;;;16.50;58.90;;;;;;5015638;28;20050;-69
2023/04/10 12:01:52;;;;;;;9.32;6.10;;;16.50;59.00;;;;;;5026201;28;20115;-73
2023/04/10 12:04:20;;;;;;;6.25;4.95;;;16.50;60.10;;;;;;5027912;28;20043;-73
2023/04/10 12:06:55;;;;;;;7.07;4.97;;;16.50;59.60;;;;;;5015308;28;20085;-75
2023/04/10 12:09:22;;;;;;;7.72;5.10;;;16.50;59.40;;;;;;5008892;28;20120;-73
2023/04/10 12:11:52;;;;;;;6.05;5.15;;;16.50;59.20;;;;;;5025328;28;20052;-71
2023/04/10 12:14:22;;;;;;;7.53;5.35;;;16.50;59.20;;;;;;5024203;28;20555;-71
2023/04/10 12:16:49;;;;;;;6.32;5.20;;;16.60;58.90;;;;;;5019710;28;20045;-70
2023/04/10 12:19:18;;;;;;;6.43;5.50;;;16.60;58.90;;;;;;4990180;28;20057;-70
2023/04/10 12:21:44;;;;;;;7.18;5.68;;;16.60;58.90;;;;;;5001675;28;20096;-70
2023/04/10 12:24:11;;;;;;;9.27;5.30;;;16.60;59.20;;;;;;4989859;28;20042;-70
2023/04/10 12:26:37;;;;;;;8.23;4.80;;;16.60;59.60;;;;;;5000060;28;20041;-71
2023/04/10 12:29:05;;;;;;;6.13;4.93;;;16.70;60.20;;;;;;4997569;28;20493;-73
2023/04/10 12:31:35;;;;;;;6.35;4.93;;;16.80;60.30;;;;;;5003176;28;20121;-74
2023/04/10 12:34:02;;;;;;;7.30;5.13;;;16.90;60.50;;;;;;5007570;28;20056;-72
2023/04/10 12:36:29;;;;;;;5.93;4.93;;;17.00;60.10;;;;;;5002150;28;20042;-73
2023/04/10 12:38:56;;;;;;;6.50;5.35;;;17.10;59.70;;;;;;5003314;28;20037;-73
2023/04/10 12:41:28;;;;;;;12.15;5.38;;;17.20;59.50;;;;;;5004045;28;20541;-74